sensor_id;sensor_type;location;lat;lon;timestamp;temperature;humidity
28010;DHT22;15334;49.494;8.410;2022-10-16T00:01:22;16.80;99.90
28010;DHT22;15334;49.494;8.410;2022-10-16T00:03:50;16.80;99.90
28010;DHT22;15334;49.494;8.410;2022-10-16T00:06:20;16.80;99.90
28010;DHT22;15334;49.494;8.410;2022-10-16T00:08:50;16.80;99.90
28010;DHT22;15334;49.494;8.410;2022-10-16T00:11:20;16.80;99.90
28010;DHT22;15334;49.494;8.410;2022-10-16T00:13:51;16.80;99.90
28010;DHT22;15334;49.494;8.410;2022-10-16T00:16:22;16.80;99.90
28010;DHT22;15334;49.494;8.410;2022-10-16T00:18:52;16.80;99.90
28010;DHT22;15334;49.494;8.410;2022-10-16T00:21:23;16.70;99.90
28010;DHT22;15334;49.494;8.410;2022-10-16T00:23:52;16.70;99.90
28010;DHT22;15334;49.494;8.410;2022-10-16T00:26:20;16.70;99.90
28010;DHT22;15334;49.494;8.410;2022-10-16T00:28:49;16.60;99.90
28010;DHT22;15334;49.494;8.410;2022-10-16T00:31:19;16.70;99.90
28010;DHT22;15334;49.494;8.410;2022-10-16T00:33:49;16.70;99.90
28010;DHT22;15334;49.494;8.410;2022-10-16T00:36:19;16.70;99.90
28010;DHT22;15334;49.494;8.410;2022-10-16T00:38:50;16.70;99.90
28010;DHT22;15334;49.494;8.410;2022-10-16T00:41:20;16.70;99.90
28010;DHT22;15334;49.494;8.410;2022-10-16T00:43:49;16.60;99.90
28010;DHT22;15334;49.494;8.410;2022-10-16T00:46:20;16.60;99.90
28010;DHT22;15334;49.494;8.410;2022-10-16T00:48:54;16.60;99.90
28010;DHT22;15334;49.494;8.410;2022-10-16T00:51:28;16.60;99.90
28010;DHT22;15334;49.494;8.410;2022-10-16T00:53:58;16.60;99.90
28010;DHT22;15334;49.494;8.410;2022-10-16T00:56:26;16.60;99.90
28010;DHT22;15334;49.494;8.410;2022-10-16T00:58:54;16.60;99.90
28010;DHT22;15334;49.494;8.410;2022-10-16T01:01:23;16.70;99.90
28010;DHT22;15334;49.494;8.410;2022-10-16T01:03:52;16.70;99.90
28010;DHT22;15334;49.494;8.410;2022-10-16T01:06:24;16.70;99.90
28010;DHT22;15334;49.494;8.410;2022-10-16T01:09:11;16.70;99.90
28010;DHT22;15334;49.494;8.410;2022-10-16T01:11:49;16.60;99.90
28010;DHT22;15334;49.494;8.410;2022-10-16T01:14:27;16.60;99.90
28010;DHT22;15334;49.494;8.410;2022-10-16T01:17:01;16.60;99.90
28010;DHT22;15334;49.494;8.410;2022-10-16T01:19:50;16.60;99.90
28010;DHT22;15334;49.494;8.410;2022-10-16T01:22:20;16.60;99.90
28010;DHT22;15334;49.494;8.410;2022-10-16T01:24:54;16.60;99.90
28010;DHT22;15334;49.494;8.410;2022-10-16T01:27:28;16.60;99.90
28010;DHT22;15334;49.494;8.410;2022-10-16T01:30:02;16.60;99.90
28010;DHT22;15334;49.494;8.410;2022-10-16T01:32:37;16.60;99.90
28010;DHT22;15334;49.494;8.410;2022-10-16T01:35:11;16.60;99.90
28010;DHT22;15334;49.494;8.410;2022-10-16T01:37:43;16.60;99.90
28010;DHT22;15334;49.494;8.410;2022-10-16T01:40:15;16.60;99.90
28010;DHT22;15334;49.494;8.410;2022-10-16T01:42:48;16.60;99.90
28010;DHT22;15334;49.494;8.410;2022-10-16T01:45:19;16.50;99.90
28010;DHT22;15334;49.494;8.410;2022-10-16T01:47:48;16.50;99.90
28010;DHT22;15334;49.494;8.410;2022-10-16T01:50:18;16.50;99.90
28010;DHT22;15334;49.494;8.410;2022-10-16T01:52:50;16.50;99.90
28010;DHT22;15334;49.494;8.410;2022-10-16T01:55:24;16.50;99.90
28010;DHT22;15334;49.494;8.410;2022-10-16T01:57:55;16.50;99.90
28010;DHT22;15334;49.494;8.410;2022-10-16T02:00:24;16.50;99.90
28010;DHT22;15334;49.494;8.410;2022-10-16T02:02:53;16.50;99.90
28010;DHT22;15334;49.494;8.410;2022-10-16T02:05:26;16.50;99.90
28010;DHT22;15334;49.494;8.410;2022-10-16T02:07:58;16.50;99.90
28010;DHT22;15334;49.494;8.410;2022-10-16T02:10:31;16.40;99.90
28010;DHT22;15334;49.494;8.410;2022-10-16T02:13:05;16.40;99.90
28010;DHT22;15334;49.494;8.410;2022-10-16T02:15:34;16.40;99.90
28010;DHT22;15334;49.494;8.410;2022-10-16T02:18:02;16.40;99.90
28010;DHT22;15334;49.494;8.410;2022-10-16T02:20:36;16.40;99.90
28010;DHT22;15334;49.494;8.410;2022-10-16T02:23:07;16.40;99.90
28010;DHT22;15334;49.494;8.410;2022-10-16T02:25:40;16.40;99.90
28010;DHT22;15334;49.494;8.410;2022-10-16T02:28:16;16.40;99.90
28010;DHT22;15334;49.494;8.410;2022-10-16T02:30:48;16.30;99.90
28010;DHT22;15334;49.494;8.410;2022-10-16T02:33:17;16.30;99.90
28010;DHT22;15334;49.494;8.410;2022-10-16T02:35:48;16.40;99.90
28010;DHT22;15334;49.494;8.410;2022-10-16T02:38:18;16.30;99.90
28010;DHT22;15334;49.494;8.410;2022-10-16T02:40:46;16.30;99.90
28010;DHT22;15334;49.494;8.410;2022-10-16T02:43:18;16.30;99.90
28010;DHT22;15334;49.494;8.410;2022-10-16T02:45:46;16.30;99.90
28010;DHT22;15334;49.494;8.410;2022-10-16T02:48:14;16.30;99.90
28010;DHT22;15334;49.494;8.410;2022-10-16T02:50:42;16.40;99.90
28010;DHT22;15334;49.494;8.410;2022-10-16T02:53:10;16.40;99.90
28010;DHT22;15334;49.494;8.410;2022-10-16T02:55:38;16.40;99.90
28010;DHT22;15334;49.494;8.410;2022-10-16T02:58:06;16.50;99.90
28010;DHT22;15334;49.494;8.410;2022-10-16T03:00:35;16.50;99.90
28010;DHT22;15334;49.494;8.410;2022-10-16T03:03:03;16.50;99.90
28010;DHT22;15334;49.494;8.410;2022-10-16T03:05:31;16.50;99.90
28010;DHT22;15334;49.494;8.410;2022-10-16T03:07:59;16.50;99.90
28010;DHT22;15334;49.494;8.410;2022-10-16T03:10:27;16.60;99.90
28010;DHT22;15334;49.494;8.410;2022-10-16T03:12:55;16.60;99.90
28010;DHT22;15334;49.494;8.410;2022-10-16T03:15:23;16.50;99.90
28010;DHT22;15334;49.494;8.410;2022-10-16T03:17:53;16.50;99.90
28010;DHT22;15334;49.494;8.410;2022-10-16T03:20:22;16.50;99.90
28010;DHT22;15334;49.494;8.410;2022-10-16T03:22:50;16.50;99.90
28010;DHT22;15334;49.494;8.410;2022-10-16T03:25:18;16.50;99.90
28010;DHT22;15334;49.494;8.410;2022-10-16T03:27:48;16.50;99.90
28010;DHT22;15334;49.494;8.410;2022-10-16T03:30:16;16.50;99.90
28010;DHT22;15334;49.494;8.410;2022-10-16T03:32:44;16.50;99.90
28010;DHT22;15334;49.494;8.410;2022-10-16T03:35:14;16.50;99.90
28010;DHT22;15334;49.494;8.410;2022-10-16T03:37:42;16.50;99.90
28010;DHT22;15334;49.494;8.410;2022-10-16T03:40:10;16.50;99.90
28010;DHT22;15334;49.494;8.410;2022-10-16T03:42:39;16.50;99.90
28010;DHT22;15334;49.494;8.410;2022-10-16T03:45:07;16.50;99.90
28010;DHT22;15334;49.494;8.410;2022-10-16T03:47:35;16.50;99.90
28010;DHT22;15334;49.494;8.410;2022-10-16T03:50:04;16.50;99.90
28010;DHT22;15334;49.494;8.410;2022-10-16T03:52:34;16.50;99.90
28010;DHT22;15334;49.494;8.410;2022-10-16T03:55:03;16.50;99.90
28010;DHT22;15334;49.494;8.410;2022-10-16T03:57:30;16.60;99.90
28010;DHT22;15334;49.494;8.410;2022-10-16T03:59:59;16.60;99.90
28010;DHT22;15334;49.494;8.410;2022-10-16T04:02:26;16.60;99.90
28010;DHT22;15334;49.494;8.410;2022-10-16T04:04:54;16.60;99.90
28010;DHT22;15334;49.494;8.410;2022-10-16T04:07:22;16.60;99.90
28010;DHT22;15334;49.494;8.410;2022-10-16T04:09:52;16.60;99.90
28010;DHT22;15334;49.494;8.410;2022-10-16T04:12:20;16.60;99.90
28010;DHT22;15334;49.494;8.410;2022-10-16T04:14:48;16.60;99.90
28010;DHT22;15334;49.494;8.410;2022-10-16T04:17:16;16.60;99.90
28010;DHT22;15334;49.494;8.410;2022-10-16T04:19:47;16.60;99.90
28010;DHT22;15334;49.494;8.410;2022-10-16T04:22:15;16.50;99.90
28010;DHT22;15334;49.494;8.410;2022-10-16T04:24:43;16.50;99.90
28010;DHT22;15334;49.494;8.410;2022-10-16T04:27:12;16.50;99.90
28010;DHT22;15334;49.494;8.410;2022-10-16T04:29:40;16.50;99.90
28010;DHT22;15334;49.494;8.410;2022-10-16T04:32:08;16.50;99.90
28010;DHT22;15334;49.494;8.410;2022-10-16T04:34:38;16.50;99.90
28010;DHT22;15334;49.494;8.410;2022-10-16T04:37:06;16.50;99.90
28010;DHT22;15334;49.494;8.410;2022-10-16T04:39:35;16.40;99.90
28010;DHT22;15334;49.494;8.410;2022-10-16T04:42:03;16.40;99.90
28010;DHT22;15334;49.494;8.410;2022-10-16T04:44:33;16.30;99.90
28010;DHT22;15334;49.494;8.410;2022-10-16T04:47:01;16.30;99.90
28010;DHT22;15334;49.494;8.410;2022-10-16T04:49:29;16.30;99.90
28010;DHT22;15334;49.494;8.410;2022-10-16T04:51:57;16.30;99.90
28010;DHT22;15334;49.494;8.410;2022-10-16T04:54:25;16.30;99.90
28010;DHT22;15334;49.494;8.410;2022-10-16T04:56:53;16.30;99.90
28010;DHT22;15334;49.494;8.410;2022-10-16T04:59:21;16.30;99.90
28010;DHT22;15334;49.494;8.410;2022-10-16T05:01:50;16.20;99.90
28010;DHT22;15334;49.494;8.410;2022-10-16T05:04:21;16.20;99.90
28010;DHT22;15334;49.494;8.410;2022-10-16T05:06:49;16.20;99.90
28010;DHT22;15334;49.494;8.410;2022-10-16T05:09:17;16.20;99.90
28010;DHT22;15334;49.494;8.410;2022-10-16T05:11:45;16.20;99.90
28010;DHT22;15334;49.494;8.410;2022-10-16T05:14:13;16.20;99.90
28010;DHT22;15334;49.494;8.410;2022-10-16T05:16:41;16.20;99.90
28010;DHT22;15334;49.494;8.410;2022-10-16T05:19:10;16.20;99.90
28010;DHT22;15334;49.494;8.410;2022-10-16T05:21:52;16.20;99.90
28010;DHT22;15334;49.494;8.410;2022-10-16T05:24:21;16.20;99.90
28010;DHT22;15334;49.494;8.410;2022-10-16T05:26:50;16.20;99.90
28010;DHT22;15334;49.494;8.410;2022-10-16T05:29:17;16.10;99.90
28010;DHT22;15334;49.494;8.410;2022-10-16T05:31:45;16.10;99.90
28010;DHT22;15334;49.494;8.410;2022-10-16T05:34:15;16.10;99.90
28010;DHT22;15334;49.494;8.410;2022-10-16T05:36:43;16.10;99.90
28010;DHT22;15334;49.494;8.410;2022-10-16T05:39:13;16.10;99.90
28010;DHT22;15334;49.494;8.410;2022-10-16T05:41:42;16.10;99.90
28010;DHT22;15334;49.494;8.410;2022-10-16T05:44:10;16.10;99.90
28010;DHT22;15334;49.494;8.410;2022-10-16T05:46:38;16.00;99.90
28010;DHT22;15334;49.494;8.410;2022-10-16T05:49:06;16.00;99.90
28010;DHT22;15334;49.494;8.410;2022-10-16T05:51:35;16.10;99.90
28010;DHT22;15334;49.494;8.410;2022-10-16T05:54:03;16.10;99.90
28010;DHT22;15334;49.494;8.410;2022-10-16T05:56:31;16.10;99.90
28010;DHT22;15334;49.494;8.410;2022-10-16T05:58:59;16.10;99.90
28010;DHT22;15334;49.494;8.410;2022-10-16T06:01:27;16.20;99.90
28010;DHT22;15334;49.494;8.410;2022-10-16T06:03:55;16.20;99.90
28010;DHT22;15334;49.494;8.410;2022-10-16T06:06:24;16.20;99.90
28010;DHT22;15334;49.494;8.410;2022-10-16T06:08:55;16.10;99.90
28010;DHT22;15334;49.494;8.410;2022-10-16T06:11:25;16.20;99.90
28010;DHT22;15334;49.494;8.410;2022-10-16T06:13:55;16.20;99.90
28010;DHT22;15334;49.494;8.410;2022-10-16T06:16:27;16.20;99.90
28010;DHT22;15334;49.494;8.410;2022-10-16T06:18:55;16.20;99.90
28010;DHT22;15334;49.494;8.410;2022-10-16T06:21:26;16.30;99.90
28010;DHT22;15334;49.494;8.410;2022-10-16T06:23:56;16.30;99.90
28010;DHT22;15334;49.494;8.410;2022-10-16T06:26:25;16.30;99.90
28010;DHT22;15334;49.494;8.410;2022-10-16T06:28:54;16.30;99.90
28010;DHT22;15334;49.494;8.410;2022-10-16T06:31:23;16.30;99.90
28010;DHT22;15334;49.494;8.410;2022-10-16T06:33:54;16.30;99.90
28010;DHT22;15334;49.494;8.410;2022-10-16T06:36:23;16.30;99.90
28010;DHT22;15334;49.494;8.410;2022-10-16T06:38:52;16.30;99.90
28010;DHT22;15334;49.494;8.410;2022-10-16T06:41:22;16.30;99.90
28010;DHT22;15334;49.494;8.410;2022-10-16T06:43:56;16.40;99.90
28010;DHT22;15334;49.494;8.410;2022-10-16T06:46:25;16.40;99.90
28010;DHT22;15334;49.494;8.410;2022-10-16T06:48:53;16.40;99.90
28010;DHT22;15334;49.494;8.410;2022-10-16T06:51:23;16.40;99.90
28010;DHT22;15334;49.494;8.410;2022-10-16T06:53:54;16.40;99.90
28010;DHT22;15334;49.494;8.410;2022-10-16T06:56:33;16.50;99.90
28010;DHT22;15334;49.494;8.410;2022-10-16T06:59:01;16.40;99.90
28010;DHT22;15334;49.494;8.410;2022-10-16T07:01:30;16.40;99.90
28010;DHT22;15334;49.494;8.410;2022-10-16T07:03:58;16.50;99.90
28010;DHT22;15334;49.494;8.410;2022-10-16T07:06:31;16.50;99.90
28010;DHT22;15334;49.494;8.410;2022-10-16T07:09:02;16.50;99.90
28010;DHT22;15334;49.494;8.410;2022-10-16T07:11:36;16.60;99.90
28010;DHT22;15334;49.494;8.410;2022-10-16T07:14:08;16.60;99.90
28010;DHT22;15334;49.494;8.410;2022-10-16T07:16:41;16.60;99.90
28010;DHT22;15334;49.494;8.410;2022-10-16T07:19:09;16.70;99.90
28010;DHT22;15334;49.494;8.410;2022-10-16T07:21:38;16.70;99.90
28010;DHT22;15334;49.494;8.410;2022-10-16T07:24:10;16.80;99.90
28010;DHT22;15334;49.494;8.410;2022-10-16T07:26:41;16.80;99.90
28010;DHT22;15334;49.494;8.410;2022-10-16T07:29:13;16.80;99.90
28010;DHT22;15334;49.494;8.410;2022-10-16T07:31:41;16.90;99.90
28010;DHT22;15334;49.494;8.410;2022-10-16T07:34:11;16.90;99.90
28010;DHT22;15334;49.494;8.410;2022-10-16T07:36:40;16.90;99.90
28010;DHT22;15334;49.494;8.410;2022-10-16T07:39:13;16.90;99.90
28010;DHT22;15334;49.494;8.410;2022-10-16T07:41:42;16.90;99.90
28010;DHT22;15334;49.494;8.410;2022-10-16T07:44:10;16.90;99.90
28010;DHT22;15334;49.494;8.410;2022-10-16T07:46:38;16.90;99.90
28010;DHT22;15334;49.494;8.410;2022-10-16T07:49:08;16.90;99.90
28010;DHT22;15334;49.494;8.410;2022-10-16T07:51:37;16.90;99.90
28010;DHT22;15334;49.494;8.410;2022-10-16T07:54:09;16.90;99.90
28010;DHT22;15334;49.494;8.410;2022-10-16T07:56:36;17.00;99.90
28010;DHT22;15334;49.494;8.410;2022-10-16T07:59:12;16.90;99.90
28010;DHT22;15334;49.494;8.410;2022-10-16T08:01:40;16.90;99.90
28010;DHT22;15334;49.494;8.410;2022-10-16T08:04:11;16.80;99.90
28010;DHT22;15334;49.494;8.410;2022-10-16T08:06:40;16.90;99.90
28010;DHT22;15334;49.494;8.410;2022-10-16T08:09:08;16.90;99.90
28010;DHT22;15334;49.494;8.410;2022-10-16T08:11:36;16.90;99.90
28010;DHT22;15334;49.494;8.410;2022-10-16T08:14:04;16.90;99.90
28010;DHT22;15334;49.494;8.410;2022-10-16T08:16:33;16.90;99.90
28010;DHT22;15334;49.494;8.410;2022-10-16T08:19:01;16.90;99.90
28010;DHT22;15334;49.494;8.410;2022-10-16T08:21:29;16.90;99.90
28010;DHT22;15334;49.494;8.410;2022-10-16T08:23:59;16.90;99.90
28010;DHT22;15334;49.494;8.410;2022-10-16T08:26:28;16.90;99.90
28010;DHT22;15334;49.494;8.410;2022-10-16T08:28:56;16.90;99.90
28010;DHT22;15334;49.494;8.410;2022-10-16T08:31:25;16.90;99.90
28010;DHT22;15334;49.494;8.410;2022-10-16T08:33:55;16.80;99.90
28010;DHT22;15334;49.494;8.410;2022-10-16T08:36:23;16.80;99.90
28010;DHT22;15334;49.494;8.410;2022-10-16T08:38:51;16.80;99.90
28010;DHT22;15334;49.494;8.410;2022-10-16T08:44:37;16.80;99.90
28010;DHT22;15334;49.494;8.410;2022-10-16T08:47:14;16.40;99.90
28010;DHT22;15334;49.494;8.410;2022-10-16T08:49:57;16.30;99.90
28010;DHT22;15334;49.494;8.410;2022-10-16T08:52:28;16.30;99.90
28010;DHT22;15334;49.494;8.410;2022-10-16T08:54:57;16.20;99.90
28010;DHT22;15334;49.494;8.410;2022-10-16T08:57:26;16.20;99.90
28010;DHT22;15334;49.494;8.410;2022-10-16T08:59:57;16.20;99.90
28010;DHT22;15334;49.494;8.410;2022-10-16T09:02:32;16.30;99.90
28010;DHT22;15334;49.494;8.410;2022-10-16T09:05:22;16.40;99.90
28010;DHT22;15334;49.494;8.410;2022-10-16T09:08:01;16.70;99.90
28010;DHT22;15334;49.494;8.410;2022-10-16T09:10:45;17.10;99.90
28010;DHT22;15334;49.494;8.410;2022-10-16T09:13:21;17.40;99.90
28010;DHT22;15334;49.494;8.410;2022-10-16T09:15:55;17.60;99.90
28010;DHT22;15334;49.494;8.410;2022-10-16T09:18:35;17.70;99.90
28010;DHT22;15334;49.494;8.410;2022-10-16T09:21:11;17.70;99.90
28010;DHT22;15334;49.494;8.410;2022-10-16T09:23:41;17.80;99.90
28010;DHT22;15334;49.494;8.410;2022-10-16T09:26:11;17.80;99.90
28010;DHT22;15334;49.494;8.410;2022-10-16T09:28:41;17.90;99.90
28010;DHT22;15334;49.494;8.410;2022-10-16T09:31:15;18.00;99.90
28010;DHT22;15334;49.494;8.410;2022-10-16T09:33:46;18.10;99.90
28010;DHT22;15334;49.494;8.410;2022-10-16T09:36:17;18.30;99.90
28010;DHT22;15334;49.494;8.410;2022-10-16T09:38:45;18.50;99.90
28010;DHT22;15334;49.494;8.410;2022-10-16T09:41:16;18.60;99.90
28010;DHT22;15334;49.494;8.410;2022-10-16T09:43:52;18.70;99.90
28010;DHT22;15334;49.494;8.410;2022-10-16T09:46:26;18.80;99.90
28010;DHT22;15334;49.494;8.410;2022-10-16T09:48:56;18.80;99.90
28010;DHT22;15334;49.494;8.410;2022-10-16T09:51:28;18.90;99.90
28010;DHT22;15334;49.494;8.410;2022-10-16T09:53:59;18.90;99.90
28010;DHT22;15334;49.494;8.410;2022-10-16T09:56:32;18.90;99.90
28010;DHT22;15334;49.494;8.410;2022-10-16T10:00:08;18.90;99.90
28010;DHT22;15334;49.494;8.410;2022-10-16T10:05:53;19.00;99.90
28010;DHT22;15334;49.494;8.410;2022-10-16T10:07:01;19.10;99.90
28010;DHT22;15334;49.494;8.410;2022-10-16T10:09:32;19.20;99.90
28010;DHT22;15334;49.494;8.410;2022-10-16T10:12:03;19.30;99.90
28010;DHT22;15334;49.494;8.410;2022-10-16T10:14:34;19.30;99.90
28010;DHT22;15334;49.494;8.410;2022-10-16T10:17:13;19.40;99.90
28010;DHT22;15334;49.494;8.410;2022-10-16T10:19:45;19.50;99.90
28010;DHT22;15334;49.494;8.410;2022-10-16T10:22:28;19.40;99.90
28010;DHT22;15334;49.494;8.410;2022-10-16T10:25:15;19.50;99.90
28010;DHT22;15334;49.494;8.410;2022-10-16T10:28:23;19.60;99.90
28010;DHT22;15334;49.494;8.410;2022-10-16T10:31:00;19.60;99.90
28010;DHT22;15334;49.494;8.410;2022-10-16T10:33:40;19.70;99.90
28010;DHT22;15334;49.494;8.410;2022-10-16T10:36:22;19.80;99.90
28010;DHT22;15334;49.494;8.410;2022-10-16T10:38:58;19.80;99.90
28010;DHT22;15334;49.494;8.410;2022-10-16T10:42:00;20.00;99.90
28010;DHT22;15334;49.494;8.410;2022-10-16T10:44:40;20.10;99.90
28010;DHT22;15334;49.494;8.410;2022-10-16T10:47:18;20.40;99.90
28010;DHT22;15334;49.494;8.410;2022-10-16T10:49:57;21.30;99.90
28010;DHT22;15334;49.494;8.410;2022-10-16T10:52:41;22.30;99.90
28010;DHT22;15334;49.494;8.410;2022-10-16T10:55:19;24.30;99.90
28010;DHT22;15334;49.494;8.410;2022-10-16T11:00:30;28.30;99.90
28010;DHT22;15334;49.494;8.410;2022-10-16T11:03:07;29.80;99.90
28010;DHT22;15334;49.494;8.410;2022-10-16T11:05:41;31.20;99.90
28010;DHT22;15334;49.494;8.410;2022-10-16T11:08:15;32.10;99.90
28010;DHT22;15334;49.494;8.410;2022-10-16T11:10:50;32.90;99.90
28010;DHT22;15334;49.494;8.410;2022-10-16T11:13:26;33.60;99.90
28010;DHT22;15334;49.494;8.410;2022-10-16T11:15:58;33.50;99.90
28010;DHT22;15334;49.494;8.410;2022-10-16T11:18:28;33.60;99.90
28010;DHT22;15334;49.494;8.410;2022-10-16T11:21:00;33.10;99.90
28010;DHT22;15334;49.494;8.410;2022-10-16T11:23:33;32.80;99.90
28010;DHT22;15334;49.494;8.410;2022-10-16T11:26:08;33.00;99.90
28010;DHT22;15334;49.494;8.410;2022-10-16T11:28:42;33.20;99.90
28010;DHT22;15334;49.494;8.410;2022-10-16T11:31:17;33.30;99.90
28010;DHT22;15334;49.494;8.410;2022-10-16T11:33:51;33.90;99.90
28010;DHT22;15334;49.494;8.410;2022-10-16T11:36:25;34.80;99.90
28010;DHT22;15334;49.494;8.410;2022-10-16T11:39:00;35.40;99.90
28010;DHT22;15334;49.494;8.410;2022-10-16T11:41:35;35.40;99.90
28010;DHT22;15334;49.494;8.410;2022-10-16T11:44:14;35.70;99.90
28010;DHT22;15334;49.494;8.410;2022-10-16T11:46:48;34.80;99.90
28010;DHT22;15334;49.494;8.410;2022-10-16T11:49:39;33.00;99.90
28010;DHT22;15334;49.494;8.410;2022-10-16T11:52:15;30.90;99.90
28010;DHT22;15334;49.494;8.410;2022-10-16T11:54:49;29.20;99.90
28010;DHT22;15334;49.494;8.410;2022-10-16T11:57:22;28.30;99.90
28010;DHT22;15334;49.494;8.410;2022-10-16T11:59:55;27.40;99.90
28010;DHT22;15334;49.494;8.410;2022-10-16T12:02:37;26.70;99.90
28010;DHT22;15334;49.494;8.410;2022-10-16T12:05:14;26.20;99.90
28010;DHT22;15334;49.494;8.410;2022-10-16T12:07:50;25.70;99.90
28010;DHT22;15334;49.494;8.410;2022-10-16T12:10:23;25.30;99.90
28010;DHT22;15334;49.494;8.410;2022-10-16T12:12:54;24.90;99.90
28010;DHT22;15334;49.494;8.410;2022-10-16T12:15:26;24.50;99.90
28010;DHT22;15334;49.494;8.410;2022-10-16T12:18:21;24.20;99.90
28010;DHT22;15334;49.494;8.410;2022-10-16T12:20:55;23.80;99.90
28010;DHT22;15334;49.494;8.410;2022-10-16T12:23:28;23.60;99.90
28010;DHT22;15334;49.494;8.410;2022-10-16T12:25:58;23.30;99.90
28010;DHT22;15334;49.494;8.410;2022-10-16T12:28:29;23.20;99.90
28010;DHT22;15334;49.494;8.410;2022-10-16T12:30:59;23.10;99.90
28010;DHT22;15334;49.494;8.410;2022-10-16T12:33:30;22.80;99.90
28010;DHT22;15334;49.494;8.410;2022-10-16T12:36:01;22.70;99.90
28010;DHT22;15334;49.494;8.410;2022-10-16T12:38:38;22.50;99.90
28010;DHT22;15334;49.494;8.410;2022-10-16T12:41:07;22.40;99.90
28010;DHT22;15334;49.494;8.410;2022-10-16T12:43:41;22.30;99.90
28010;DHT22;15334;49.494;8.410;2022-10-16T12:46:33;22.30;99.90
28010;DHT22;15334;49.494;8.410;2022-10-16T12:49:06;22.50;99.90
28010;DHT22;15334;49.494;8.410;2022-10-16T12:51:35;22.70;99.90
28010;DHT22;15334;49.494;8.410;2022-10-16T12:54:11;22.80;99.90
28010;DHT22;15334;49.494;8.410;2022-10-16T12:56:46;23.00;99.90
28010;DHT22;15334;49.494;8.410;2022-10-16T12:59:28;23.20;99.90
28010;DHT22;15334;49.494;8.410;2022-10-16T13:02:14;23.20;99.90
28010;DHT22;15334;49.494;8.410;2022-10-16T13:05:08;23.30;99.90
28010;DHT22;15334;49.494;8.410;2022-10-16T13:07:49;23.30;99.90
28010;DHT22;15334;49.494;8.410;2022-10-16T13:10:20;23.10;99.90
28010;DHT22;15334;49.494;8.410;2022-10-16T13:13:07;22.90;99.90
28010;DHT22;15334;49.494;8.410;2022-10-16T13:15:57;22.60;99.90
28010;DHT22;15334;49.494;8.410;2022-10-16T13:18:32;22.30;99.90
28010;DHT22;15334;49.494;8.410;2022-10-16T13:21:13;22.10;99.90
28010;DHT22;15334;49.494;8.410;2022-10-16T13:23:53;21.90;99.90
28010;DHT22;15334;49.494;8.410;2022-10-16T13:26:31;21.80;99.90
28010;DHT22;15334;49.494;8.410;2022-10-16T13:29:04;21.60;99.90
28010;DHT22;15334;49.494;8.410;2022-10-16T13:31:33;21.50;99.90
28010;DHT22;15334;49.494;8.410;2022-10-16T13:34:01;21.40;99.90
28010;DHT22;15334;49.494;8.410;2022-10-16T13:36:34;21.30;99.90
28010;DHT22;15334;49.494;8.410;2022-10-16T13:39:12;21.20;99.90
28010;DHT22;15334;49.494;8.410;2022-10-16T13:41:41;21.20;99.90
28010;DHT22;15334;49.494;8.410;2022-10-16T13:44:14;21.20;99.90
28010;DHT22;15334;49.494;8.410;2022-10-16T13:46:44;21.20;99.90
28010;DHT22;15334;49.494;8.410;2022-10-16T13:49:14;21.20;99.90
28010;DHT22;15334;49.494;8.410;2022-10-16T13:51:54;21.30;99.90
28010;DHT22;15334;49.494;8.410;2022-10-16T13:54:24;21.40;99.90
28010;DHT22;15334;49.494;8.410;2022-10-16T13:56:56;21.40;99.90
28010;DHT22;15334;49.494;8.410;2022-10-16T13:59:37;21.40;99.90
28010;DHT22;15334;49.494;8.410;2022-10-16T14:02:17;21.30;99.90
28010;DHT22;15334;49.494;8.410;2022-10-16T14:04:47;21.20;99.90
28010;DHT22;15334;49.494;8.410;2022-10-16T14:07:23;21.20;99.90
28010;DHT22;15334;49.494;8.410;2022-10-16T14:09:53;21.10;99.90
28010;DHT22;15334;49.494;8.410;2022-10-16T14:12:22;21.00;99.90
28010;DHT22;15334;49.494;8.410;2022-10-16T14:14:55;21.00;99.90
28010;DHT22;15334;49.494;8.410;2022-10-16T14:17:27;21.00;99.90
28010;DHT22;15334;49.494;8.410;2022-10-16T14:19:56;20.90;99.90
28010;DHT22;15334;49.494;8.410;2022-10-16T14:22:32;20.80;99.90
28010;DHT22;15334;49.494;8.410;2022-10-16T14:25:01;20.70;99.90
28010;DHT22;15334;49.494;8.410;2022-10-16T14:27:31;20.60;99.90
28010;DHT22;15334;49.494;8.410;2022-10-16T14:30:20;20.60;99.90
28010;DHT22;15334;49.494;8.410;2022-10-16T14:33:01;20.50;99.90
28010;DHT22;15334;49.494;8.410;2022-10-16T14:35:31;20.40;99.90
28010;DHT22;15334;49.494;8.410;2022-10-16T14:38:00;20.40;99.90
28010;DHT22;15334;49.494;8.410;2022-10-16T14:40:31;20.40;99.90
28010;DHT22;15334;49.494;8.410;2022-10-16T14:43:00;20.30;99.90
28010;DHT22;15334;49.494;8.410;2022-10-16T14:45:30;20.30;99.90
28010;DHT22;15334;49.494;8.410;2022-10-16T14:48:02;20.30;99.90
28010;DHT22;15334;49.494;8.410;2022-10-16T14:50:32;20.30;99.90
28010;DHT22;15334;49.494;8.410;2022-10-16T14:53:04;20.20;99.90
28010;DHT22;15334;49.494;8.410;2022-10-16T14:55:36;20.20;99.90
28010;DHT22;15334;49.494;8.410;2022-10-16T14:58:05;20.30;99.90
28010;DHT22;15334;49.494;8.410;2022-10-16T15:00:32;20.40;99.90
28010;DHT22;15334;49.494;8.410;2022-10-16T15:03:02;20.50;99.90
28010;DHT22;15334;49.494;8.410;2022-10-16T15:05:30;20.50;99.90
28010;DHT22;15334;49.494;8.410;2022-10-16T15:07:58;20.60;99.90
28010;DHT22;15334;49.494;8.410;2022-10-16T15:10:27;20.60;99.90
28010;DHT22;15334;49.494;8.410;2022-10-16T15:12:56;20.70;99.90
28010;DHT22;15334;49.494;8.410;2022-10-16T15:15:33;20.80;99.90
28010;DHT22;15334;49.494;8.410;2022-10-16T15:18:04;20.90;99.90
28010;DHT22;15334;49.494;8.410;2022-10-16T15:20:36;20.90;99.90
28010;DHT22;15334;49.494;8.410;2022-10-16T15:23:09;20.80;99.90
28010;DHT22;15334;49.494;8.410;2022-10-16T15:25:41;20.80;99.90
28010;DHT22;15334;49.494;8.410;2022-10-16T15:28:10;20.80;99.90
28010;DHT22;15334;49.494;8.410;2022-10-16T15:30:41;20.80;99.90
28010;DHT22;15334;49.494;8.410;2022-10-16T15:33:17;20.70;99.90
28010;DHT22;15334;49.494;8.410;2022-10-16T15:35:47;20.70;99.90
28010;DHT22;15334;49.494;8.410;2022-10-16T15:38:16;20.70;99.90
28010;DHT22;15334;49.494;8.410;2022-10-16T15:40:45;20.70;99.90
28010;DHT22;15334;49.494;8.410;2022-10-16T15:43:15;20.60;99.90
28010;DHT22;15334;49.494;8.410;2022-10-16T15:45:43;20.60;99.90
28010;DHT22;15334;49.494;8.410;2022-10-16T15:48:12;20.50;99.90
28010;DHT22;15334;49.494;8.410;2022-10-16T15:50:41;20.40;99.90
28010;DHT22;15334;49.494;8.410;2022-10-16T15:53:15;20.40;99.90
28010;DHT22;15334;49.494;8.410;2022-10-16T15:55:43;20.30;99.90
28010;DHT22;15334;49.494;8.410;2022-10-16T15:58:11;20.20;99.90
28010;DHT22;15334;49.494;8.410;2022-10-16T16:00:39;20.20;99.90
28010;DHT22;15334;49.494;8.410;2022-10-16T16:03:07;20.10;99.90
28010;DHT22;15334;49.494;8.410;2022-10-16T16:05:40;20.00;99.90
28010;DHT22;15334;49.494;8.410;2022-10-16T16:08:13;19.90;99.90